createdAt,value
2023-02-05T00:02:48.061Z,22.80
2023-02-05T00:05:54.230Z,23.20
2023-02-05T00:09:00.863Z,24.10
2023-02-05T00:12:08.719Z,22.60
2023-02-05T00:15:15.028Z,15.90
2023-02-05T00:21:26.225Z,23.80
2023-02-05T00:24:32.537Z,22.80
2023-02-05T00:30:44.977Z,21.40
2023-02-05T00:33:51.859Z,20.10
2023-02-05T00:36:58.234Z,20.40
2023-02-05T00:40:05.201Z,23.30
2023-02-05T00:43:11.719Z,21.40
2023-02-05T00:46:18.091Z,20.70
2023-02-05T00:49:24.377Z,17.10
2023-02-05T00:55:35.747Z,20.00
2023-02-05T00:58:47.498Z,19.80
2023-02-05T01:01:53.740Z,16.70
2023-02-05T01:08:05.144Z,16.70
2023-02-05T01:11:12.270Z,16.20
2023-02-05T01:14:18.553Z,17.90
2023-02-05T01:20:30.107Z,16.70
2023-02-05T01:23:36.352Z,17.20
2023-02-05T01:29:46.982Z,16.50
2023-02-05T01:32:53.264Z,16.90
2023-02-05T01:39:04.001Z,18.10
2023-02-05T01:45:52.818Z,17.80
2023-02-05T01:49:01.199Z,17.90
2023-02-05T01:52:11.199Z,16.50
2023-02-05T01:55:18.141Z,19.00
2023-02-05T01:58:26.977Z,16.10
2023-02-05T02:01:34.084Z,19.10
2023-02-05T02:04:42.964Z,17.80
2023-02-05T02:07:49.356Z,17.00
2023-02-05T02:10:58.084Z,18.30
2023-02-05T02:14:07.662Z,18.10
2023-02-05T02:17:14.808Z,15.90
2023-02-05T02:20:23.939Z,16.20
2023-02-05T02:23:40.053Z,16.10
2023-02-05T02:30:04.148Z,15.30
2023-02-05T02:33:16.140Z,15.70
2023-02-05T02:36:28.688Z,17.80
2023-02-05T02:39:41.677Z,16.30
2023-02-05T02:42:53.363Z,18.40
2023-02-05T02:46:05.774Z,15.20
2023-02-05T02:49:17.674Z,14.00
2023-02-05T02:52:26.412Z,15.40
2023-02-05T02:55:36.782Z,14.70
2023-02-05T02:58:46.928Z,16.90
2023-02-05T03:01:57.090Z,15.60
2023-02-05T03:05:07.311Z,18.00
2023-02-05T03:08:18.672Z,15.30
2023-02-05T03:11:26.298Z,15.60
2023-02-05T03:14:33.354Z,15.90
2023-02-05T03:17:40.910Z,15.60
2023-02-05T03:20:51.776Z,16.70
2023-02-05T03:23:58.332Z,16.60
2023-02-05T03:27:04.734Z,16.00
2023-02-05T03:30:13.095Z,15.20
2023-02-05T03:33:33.180Z,16.20
2023-02-05T03:37:00.653Z,15.60
2023-02-05T03:40:15.254Z,15.90
2023-02-05T03:43:32.951Z,16.20
2023-02-05T03:46:49.396Z,14.80
2023-02-05T03:50:03.708Z,14.90
2023-02-05T03:53:19.857Z,15.90
2023-02-05T03:56:30.811Z,14.20
2023-02-05T03:59:38.373Z,14.30
2023-02-05T04:02:45.102Z,13.60
2023-02-05T04:05:51.338Z,13.50
2023-02-05T04:12:02.138Z,12.30
2023-02-05T04:18:15.421Z,13.20
2023-02-05T04:24:26.435Z,12.40
2023-02-05T04:27:32.711Z,14.30
2023-02-05T04:33:43.882Z,14.80
2023-02-05T04:36:50.583Z,13.80
2023-02-05T04:39:56.768Z,14.10
2023-02-05T04:43:03.068Z,21.60
2023-02-05T04:49:14.552Z,18.30
2023-02-05T04:55:25.442Z,15.00
2023-02-05T05:01:36.325Z,16.10
2023-02-05T05:07:49.616Z,14.90
2023-02-05T05:14:00.449Z,17.40
2023-02-05T05:20:12.657Z,19.70
2023-02-05T05:23:18.938Z,17.00
2023-02-05T05:29:29.715Z,15.30
2023-02-05T05:35:40.726Z,14.90
2023-02-05T05:38:47.369Z,14.70
2023-02-05T05:42:11.351Z,15.50
2023-02-05T05:45:17.852Z,14.40
2023-02-05T05:48:23.979Z,16.40
2023-02-05T05:51:32.724Z,15.80
2023-02-05T05:54:39.452Z,14.60
2023-02-05T05:57:45.737Z,15.70
2023-02-05T06:03:56.621Z,15.50
2023-02-05T06:13:14.103Z,13.00
2023-02-05T06:16:20.383Z,11.70
2023-02-05T06:22:31.121Z,13.90
2023-02-05T06:28:42.576Z,15.90
2023-02-05T06:31:48.971Z,15.10
2023-02-05T06:34:55.083Z,18.50
2023-02-05T06:38:01.343Z,19.40
2023-02-05T06:44:12.368Z,20.10
2023-02-05T06:47:18.888Z,20.80
2023-02-05T06:50:25.450Z,21.70
2023-02-05T06:53:31.714Z,21.60
2023-02-05T06:59:42.456Z,23.40
2023-02-05T07:05:53.227Z,14.90
2023-02-05T07:12:06.056Z,15.20
2023-02-05T07:15:13.026Z,16.70
2023-02-05T07:18:19.247Z,16.50
2023-02-05T07:24:30.693Z,21.70
2023-02-05T07:27:37.016Z,20.70
2023-02-05T07:33:49.444Z,20.80
2023-02-05T07:36:55.828Z,23.50
2023-02-05T07:40:03.061Z,19.80
2023-02-05T07:43:09.408Z,15.70
2023-02-05T07:49:22.207Z,16.80
2023-02-05T07:52:28.437Z,16.90
2023-02-05T07:55:36.032Z,17.30
2023-02-05T07:58:42.449Z,15.70
2023-02-05T08:04:53.253Z,18.40
2023-02-05T08:11:05.992Z,17.20
2023-02-05T08:14:12.302Z,17.30
2023-02-05T08:20:24.160Z,17.50
2023-02-05T08:23:30.355Z,20.10
2023-02-05T08:26:36.600Z,17.90
2023-02-05T08:32:50.454Z,18.20
2023-02-05T08:35:58.770Z,19.40
2023-02-05T08:39:05.456Z,18.10
2023-02-05T08:42:11.600Z,21.20
2023-02-05T08:45:17.843Z,18.40
2023-02-05T08:51:29.566Z,21.50
2023-02-05T08:54:35.825Z,13.20
2023-02-05T09:00:46.927Z,17.60
2023-02-05T09:03:53.254Z,15.30
2023-02-05T09:10:04.040Z,11.80
2023-02-05T09:16:14.986Z,13.20
2023-02-05T09:19:21.334Z,11.60
2023-02-05T09:25:34.409Z,15.40
2023-02-05T09:28:40.950Z,14.30
2023-02-05T09:34:52.025Z,18.40
2023-02-05T09:41:06.872Z,11.60
2023-02-05T09:44:18.519Z,17.60
2023-02-05T09:47:31.292Z,19.70
2023-02-05T09:50:38.165Z,21.10
2023-02-05T09:53:50.366Z,22.60
2023-02-05T09:57:02.075Z,21.50
2023-02-05T10:00:20.006Z,20.90
2023-02-05T10:03:31.241Z,22.50
2023-02-05T10:06:51.092Z,43.10
2023-02-05T10:10:22.660Z,46.70
2023-02-05T10:13:36.822Z,45.10
2023-02-05T10:17:03.619Z,74.40
2023-02-05T10:20:25.898Z,32.60
2023-02-05T10:23:50.096Z,22.00
2023-02-05T10:27:02.677Z,22.50
2023-02-05T10:30:18.623Z,23.50
2023-02-05T10:33:37.111Z,23.70
2023-02-05T10:36:44.913Z,30.30
2023-02-05T10:39:51.952Z,22.50
2023-02-05T10:43:08.316Z,19.80
2023-02-05T10:46:16.601Z,20.60
2023-02-05T10:49:27.524Z,16.80
2023-02-05T10:52:35.197Z,25.40
2023-02-05T10:55:41.466Z,22.10
2023-02-05T10:58:55.908Z,19.70
2023-02-05T11:02:05.246Z,25.30
2023-02-05T11:05:20.785Z,14.60
2023-02-05T11:08:39.854Z,19.90
2023-02-05T11:11:52.411Z,17.60
2023-02-05T11:15:03.189Z,28.60
2023-02-05T11:18:23.336Z,21.30
2023-02-05T11:21:49.620Z,18.20
2023-02-05T11:25:08.834Z,14.40
2023-02-05T11:28:24.583Z,14.80
2023-02-05T11:31:34.880Z,17.80
2023-02-05T11:34:41.169Z,15.50
2023-02-05T11:37:48.620Z,13.70
2023-02-05T11:40:58.758Z,12.70
2023-02-05T11:44:06.397Z,13.80
2023-02-05T11:47:12.693Z,13.50
2023-02-05T11:50:26.045Z,16.60
2023-02-05T11:53:34.192Z,15.60
2023-02-05T11:56:40.424Z,11.50
2023-02-05T11:59:58.323Z,13.40
2023-02-05T12:03:17.719Z,16.00
2023-02-05T12:06:29.076Z,16.50
2023-02-05T12:09:35.425Z,14.40
2023-02-05T12:16:02.573Z,13.60
2023-02-05T12:19:21.982Z,14.00
2023-02-05T12:22:41.573Z,17.30
2023-02-05T12:25:56.638Z,12.50
2023-02-05T12:29:15.584Z,14.30
2023-02-05T12:32:32.974Z,15.40
2023-02-05T12:35:55.016Z,14.60
2023-02-05T12:39:14.468Z,14.90
2023-02-05T12:42:33.336Z,15.80
2023-02-05T12:45:50.285Z,14.00
2023-02-05T12:49:14.883Z,14.50
2023-02-05T12:52:38.310Z,19.10
2023-02-05T12:55:59.131Z,15.00
2023-02-05T12:59:13.796Z,25.60
2023-02-05T13:02:29.848Z,20.90
2023-02-05T13:05:40.014Z,42.90
2023-02-05T13:08:51.726Z,16.80
2023-02-05T13:12:02.449Z,14.60
2023-02-05T13:15:17.848Z,14.20
2023-02-05T13:18:28.957Z,13.30
2023-02-05T13:21:53.473Z,16.80
2023-02-05T13:25:27.373Z,17.10
2023-02-05T13:28:43.621Z,17.90
2023-02-05T13:31:53.667Z,15.60
2023-02-05T13:35:00.243Z,13.60
2023-02-05T13:38:22.702Z,13.20
2023-02-05T13:41:54.104Z,15.80
2023-02-05T13:45:22.149Z,16.60
2023-02-05T13:49:11.253Z,14.40
2023-02-05T13:52:36.988Z,15.30
2023-02-05T13:56:19.803Z,16.30
2023-02-05T13:59:35.889Z,15.40
2023-02-05T14:06:13.107Z,17.10
2023-02-05T14:09:30.685Z,16.30
2023-02-05T14:12:39.154Z,31.40
2023-02-05T14:15:46.051Z,19.20
2023-02-05T14:19:04.448Z,15.30
2023-02-05T14:22:14.357Z,22.60
2023-02-05T14:26:06.586Z,26.80
2023-02-05T14:29:44.462Z,17.10
2023-02-05T14:33:01.768Z,18.20
2023-02-05T14:36:36.477Z,21.00
2023-02-05T14:39:43.937Z,15.90
2023-02-05T14:42:50.903Z,20.80
2023-02-05T14:46:00.784Z,22.30
2023-02-05T14:49:10.525Z,25.60
2023-02-05T14:52:29.778Z,21.50
2023-02-05T14:55:43.784Z,25.40
2023-02-05T14:58:59.668Z,20.30
2023-02-05T15:02:26.244Z,21.40
2023-02-05T15:05:39.086Z,18.20
2023-02-05T15:09:03.097Z,20.90
2023-02-05T15:12:36.921Z,24.10
2023-02-05T15:15:43.157Z,20.80
2023-02-05T15:18:51.295Z,16.20
2023-02-05T15:21:57.812Z,20.70
2023-02-05T15:25:10.354Z,22.30
2023-02-05T15:28:29.112Z,25.80
2023-02-05T15:31:43.047Z,22.10
2023-02-05T15:34:54.479Z,22.50
2023-02-05T15:38:04.567Z,21.50
2023-02-05T15:41:12.671Z,19.10
2023-02-05T15:44:28.124Z,23.40
2023-02-05T15:47:34.233Z,22.60
2023-02-05T15:50:48.755Z,23.10
2023-02-05T15:53:56.360Z,22.60
2023-02-05T15:57:04.480Z,20.90
2023-02-05T16:00:20.620Z,20.90
2023-02-05T16:06:39.556Z,26.00
2023-02-05T16:09:50.053Z,24.20
2023-02-05T16:13:07.275Z,22.90
2023-02-05T16:16:19.387Z,19.80
2023-02-05T16:19:30.880Z,21.60
2023-02-05T16:22:41.691Z,20.90
2023-02-05T16:25:51.993Z,18.50
2023-02-05T16:29:02.361Z,19.90
2023-02-05T16:32:16.010Z,23.50
2023-02-05T16:35:28.254Z,23.40
2023-02-05T16:38:36.117Z,21.50
2023-02-05T16:41:45.188Z,27.00
2023-02-05T16:45:04.053Z,22.70
2023-02-05T16:48:31.908Z,21.80
2023-02-05T16:51:54.451Z,22.90
2023-02-05T16:55:06.250Z,22.60
2023-02-05T16:58:20.378Z,24.80
2023-02-05T17:01:29.425Z,22.10
2023-02-05T17:04:38.979Z,22.90
2023-02-05T17:07:45.182Z,20.40
2023-02-05T17:10:56.204Z,23.60
2023-02-05T17:14:14.930Z,23.20
2023-02-05T17:17:22.204Z,24.60
2023-02-05T17:20:29.898Z,23.40
2023-02-05T17:23:36.590Z,24.10
2023-02-05T17:26:44.154Z,21.90
2023-02-05T17:29:50.701Z,30.60
2023-02-05T17:32:56.890Z,27.50
2023-02-05T17:36:03.079Z,26.70
2023-02-05T17:39:09.226Z,25.40
2023-02-05T17:42:25.400Z,24.30
2023-02-05T17:45:35.926Z,21.60
2023-02-05T17:48:42.420Z,24.00
2023-02-05T17:51:48.955Z,24.20
2023-02-05T17:54:55.168Z,23.90
2023-02-05T17:58:01.458Z,26.90
2023-02-05T18:04:13.294Z,43.90
2023-02-05T18:07:26.380Z,25.60
2023-02-05T18:10:33.521Z,25.70
2023-02-05T18:13:40.064Z,28.30
2023-02-05T18:16:46.657Z,32.40
2023-02-05T18:19:52.975Z,30.60
2023-02-05T18:26:05.808Z,25.20
2023-02-05T18:29:12.045Z,24.20
2023-02-05T18:32:18.252Z,26.70
2023-02-05T18:35:24.633Z,25.70
2023-02-05T18:38:31.042Z,24.20
2023-02-05T18:41:38.328Z,26.50
2023-02-05T18:44:44.644Z,23.90
2023-02-05T18:50:55.546Z,25.20
2023-02-05T18:54:01.820Z,26.60
2023-02-05T19:00:14.806Z,25.20
2023-02-05T19:03:21.334Z,25.20
2023-02-05T19:06:27.473Z,24.20
2023-02-05T19:09:34.031Z,28.30
2023-02-05T19:12:40.359Z,26.00
2023-02-05T19:18:51.009Z,30.50
2023-02-05T19:25:03.768Z,30.90
2023-02-05T19:31:16.794Z,31.90
2023-02-05T19:34:23.628Z,34.40
2023-02-05T19:37:29.951Z,34.00
2023-02-05T19:43:50.051Z,28.70
2023-02-05T19:46:56.343Z,30.60
2023-02-05T19:53:07.150Z,32.10
2023-02-05T19:59:21.046Z,32.70
2023-02-05T20:02:28.187Z,32.30
2023-02-05T20:05:36.756Z,33.30
2023-02-05T20:08:43.230Z,35.50
2023-02-05T20:11:50.948Z,32.60
2023-02-05T20:14:57.456Z,33.30
2023-02-05T20:18:03.713Z,35.90
2023-02-05T20:24:16.323Z,43.30
2023-02-05T20:27:22.638Z,42.10
2023-02-05T20:33:50.846Z,44.60
2023-02-05T20:40:02.220Z,35.60
2023-02-05T20:46:15.566Z,40.80
2023-02-05T20:52:26.410Z,39.30
2023-02-05T20:55:32.618Z,39.70
2023-02-05T21:01:44.169Z,39.20
2023-02-05T21:04:52.528Z,38.30
2023-02-05T21:07:59.143Z,40.30
2023-02-05T21:14:10.664Z,44.90
2023-02-05T21:17:16.761Z,42.90
2023-02-05T21:20:23.106Z,39.00
2023-02-05T21:23:29.379Z,39.80
2023-02-05T21:29:41.537Z,40.60
2023-02-05T21:32:47.777Z,42.80
2023-02-05T21:38:58.806Z,39.60
2023-02-05T21:42:05.218Z,39.30
2023-02-05T21:45:12.777Z,40.40
2023-02-05T21:48:18.954Z,39.60
2023-02-05T21:51:27.028Z,43.70
2023-02-05T21:54:33.422Z,41.40
2023-02-05T21:57:39.658Z,43.70
2023-02-05T22:03:53.649Z,39.00
2023-02-05T22:06:59.863Z,47.30
2023-02-05T22:10:06.554Z,41.40
2023-02-05T22:13:12.636Z,44.90
2023-02-05T22:16:20.632Z,47.50
2023-02-05T22:19:27.803Z,45.60
2023-02-05T22:22:35.922Z,45.40
2023-02-05T22:25:48.894Z,45.60
2023-02-05T22:28:56.704Z,43.10
2023-02-05T22:32:02.944Z,47.40
2023-02-05T22:38:14.170Z,44.40
2023-02-05T22:44:25.706Z,47.30
2023-02-05T22:47:32.001Z,43.20
2023-02-05T22:53:49.143Z,42.60
2023-02-05T22:56:55.357Z,47.10
2023-02-05T23:00:03.256Z,46.20
2023-02-05T23:03:09.531Z,45.00
2023-02-05T23:12:26.288Z,45.80
2023-02-05T23:18:37.019Z,47.30
2023-02-05T23:24:48.285Z,49.60
2023-02-05T23:27:54.603Z,50.30
2023-02-05T23:31:00.867Z,45.80
2023-02-05T23:37:12.253Z,47.70
2023-02-05T23:40:18.680Z,53.10
2023-02-05T23:43:25.163Z,46.60
2023-02-05T23:46:31.438Z,50.00
2023-02-05T23:52:42.261Z,48.80
2023-02-05T23:58:53.049Z,50.60
